Norwegian Star — C6FR3 — position and weather

sailwx.info

Track history (hours):
 
Tides and Currents Weather Stations Pressure Air Temp Water Temp Dewpoint Dewpoint Depression Visibility Wind Speed Wind Dir Waves Ship Positions

Norwegian Star

Operator: Norwegian Cruise Line

Last reported at 2016-May-27 05:27 UTC. Time now 2016-May-27 06:31 UTC.
Position N 59°27' E 024°46'.

Type: Passenger vessel. MMSI: 311082000.

Date/timePositionNaut miles runAvg speedWind from/ knotsBaromVisibWave heightAir tempDewpointWater temp
2016-May-27 05:27N 59°27' E 024°46'6 7.1
2016-May-27 04:33N 59°30' E 024°34'3615.9
2016-May-27 02:17N 59°24' E 023°24'33316.8
2016-May-26 06:27N 55°41' E 015°44'1617.2
2016-May-26 05:33N 55°35' E 015°19'1717.3
2016-May-26 04:33N 55°27' E 014°51'916.5
2016-May-26 04:00N 55°24' E 014°36'920.9 050 / 171015.0 1.011.0 5.0 9.0
2016-May-26 03:33N 55°16' E 014°30'1717.2
2016-May-26 02:33N 55°03' E 014°10'1717.2
2016-May-26 01:33N 54°56' E 013°42'1716.9
2016-May-26 00:32N 54°51' E 013°14'1616.0
2016-May-25 23:33N 54°46' E 012°48'1615.7
2016-May-25 22:33N 54°39' E 012°24'1515.4
2016-May-25 21:34N 54°26' E 012°10'1312.8
2016-May-25 20:33N 54°13' E 012°04'3 2.5
2016-May-25 19:29N 54°11' E 012°06'0 0.0
2016-May-25 18:32N 54°11' E 012°06'0 0.0
2016-May-25 17:32N 54°11' E 012°06'0 0.0
2016-May-25 16:29N 54°11' E 012°06'0 0.0
2016-May-25 15:32N 54°11' E 012°06'0 0.0
2016-May-25 14:32N 54°11' E 012°06'0 0.0
2016-May-25 13:29N 54°11' E 012°06'0 0.0
2016-May-25 12:29N 54°11' E 012°06'0 0.0
2016-May-25 11:29N 54°11' E 012°06'0 0.0
2016-May-25 10:32N 54°11' E 012°06'0 0.0
2016-May-25 09:32N 54°11' E 012°06'0 0.0
2016-May-25 08:32N 54°11' E 012°06'0 0.0
2016-May-25 07:17N 54°11' E 012°06'0 0.0
2016-May-25 06:29N 54°11' E 012°06'0 0.1
2016-May-25 05:33N 54°11' E 012°06'3 2.9
2016-May-25 04:33N 54°13' E 012°04'7 7.1
2016-May-25 03:33N 54°18' E 011°56'1514.7
2016-May-25 02:33N 54°26' E 011°35'1616.2
2016-May-25 01:33N 54°35' E 011°11'1515.3
2016-May-25 00:34N 54°45' E 010°51'1615.5
2016-May-24 23:34N 54°60' E 011°01'1616.2
2016-May-24 22:33N 55°16' E 011°04'4117.4
2016-May-24 20:11N 55°57' E 010°59'1318.2
2016-May-24 19:28N 56°07' E 011°13'2319.0
2016-May-24 18:17N 56°08' E 011°54'1419.3
2016-May-24 17:33N 56°12' E 012°18'1717.5
2016-May-24 16:33N 56°01' E 012°41'1515.0
2016-May-24 15:33N 55°46' E 012°42'4 3.6
2016-May-24 14:33N 55°43' E 012°37'0 0.0
2016-May-24 13:33N 55°43' E 012°37'0 0.0
2016-May-24 12:33N 55°43' E 012°37'0 0.0
2016-May-24 11:33N 55°43' E 012°37'0 0.0
2016-May-24 10:33N 55°43' E 012°37'0 0.0
2016-May-24 09:33N 55°43' E 012°37'0 0.0
2016-May-24 08:33N 55°43' E 012°37'0 0.0
2016-May-24 07:33N 55°43' E 012°37'0 0.0
2016-May-24 06:33N 55°43' E 012°37'0 0.0
2016-May-24 05:33N 55°43' E 012°37'0 0.0
2016-May-24 04:33N 55°43' E 012°37'5 4.7
2016-May-24 03:33N 55°47' E 012°42'1312.6
2016-May-24 02:33N 55°59' E 012°40'1312.7
2016-May-24 01:33N 56°09' E 012°26'1313.3
2016-May-24 00:34N 56°17' E 012°06'1412.8
2016-May-23 23:29N 56°30' E 011°58'1213.4
2016-May-23 22:33N 56°42' E 011°54'1313.5
2016-May-23 21:34N 56°54' E 011°45'1514.6
2016-May-23 20:33N 57°08' E 011°36'1414.3
2016-May-23 19:33N 57°22' E 011°27'1616.0
2016-May-23 18:33N 57°34' E 011°09'1515.4
2016-May-23 17:33N 57°45' E 010°49'1615.9
2016-May-23 16:33N 57°49' E 010°20'813.6
2016-May-23 16:00N 57°48' E 010°06'716.4 190 / 91010.0 0.511.511.312.0
2016-May-23 15:32N 57°49' E 009°52'1614.4
2016-May-23 14:27N 57°47' E 009°23'2914.6
2016-May-23 12:30N 57°44' E 008°30'2914.8
2016-May-23 10:31N 57°41' E 007°35'1616.2
2016-May-23 09:31N 57°41' E 007°05'1715.3
2016-May-23 08:26N 57°43' E 006°34'1313.8
2016-May-23 07:31N 57°51' E 006°16'1414.9
2016-May-23 06:33N 58°01' E 005°56'3214.6
2016-May-23 04:20N 58°22' E 005°10'1215.0
2016-May-23 03:31N 58°31' E 004°54'1414.7
2016-May-23 02:34N 58°41' E 004°35'  
2016-May-20 21:12N 62°09' E 004°46'1117.2
2016-May-20 20:33N 62°19' E 004°58'1714.8
2016-May-20 19:23N 62°27' E 005°31'38 1.8
2016-May-19 22:31N 62°26' E 006°53'6 5.8
2016-May-19 21:33N 62°27' E 006°41'6 5.9
2016-May-19 20:33N 62°25' E 006°29'6 6.4
2016-May-19 19:33N 62°23' E 006°16'6 6.0
2016-May-19 18:33N 62°24' E 006°03'5 4.6
2016-May-19 17:34N 62°27' E 006°10'1 0.9
2016-May-19 16:32N 62°28' E 006°09'0 0.0
2016-May-19 15:32N 62°28' E 006°09'216 8.3
2016-May-18 13:28N 58°59' E 004°15'1415.9
2016-May-18 12:33N 58°49' E 004°34'1616.0
2016-May-18 11:33N 58°37' E 004°55'1615.9
2016-May-18 10:33N 58°25' E 005°15'1616.1
2016-May-18 09:33N 58°14' E 005°39'1616.6
2016-May-18 08:34N 58°04' E 006°02'1616.3
2016-May-18 07:33N 57°53' E 006°25'1616.1
2016-May-18 06:33N 57°46' E 006°53'9719.3
2016-May-18 01:31N 57°51' E 009°55'1819.0
2016-May-18 00:33N 57°52' E 010°29'1818.5
2016-May-17 23:33N 57°43' E 011°00'2020.1
2016-May-17 22:33N 57°29' E 011°27'2020.1
2016-May-17 21:33N 57°10' E 011°38'2019.7
2016-May-17 20:33N 56°52' E 011°51'1919.3
2016-May-17 19:33N 56°33' E 011°59'1918.6
2016-May-17 18:32N 56°15' E 012°12'1717.6
2016-May-17 17:33N 56°05' E 012°37'1515.5
2016-May-17 16:33N 55°50' E 012°45'8 8.1
2016-May-17 15:32N 55°43' E 012°37'0 0.0
2016-May-17 14:32N 55°43' E 012°37'0 0.0
2016-May-17 13:32N 55°43' E 012°37'0 0.0
2016-May-17 12:32N 55°43' E 012°37'0 0.0
2016-May-17 11:32N 55°43' E 012°37'0 0.0
2016-May-17 10:32N 55°43' E 012°37'0 0.0
2016-May-17 09:32N 55°43' E 012°37'0 0.0
2016-May-17 08:32N 55°43' E 012°37'0 0.0
2016-May-17 07:32N 55°43' E 012°37'0 0.0
2016-May-17 06:32N 55°43' E 012°37'0 0.0
2016-May-17 05:32N 55°43' E 012°37'  
Track history (hours):
 
Tides and Currents Weather Stations Pressure Air Temp Water Temp Dewpoint Dewpoint Depression Visibility Wind Speed Wind Dir Waves Ship Positions

Norwegian Star

Operator: Norwegian Cruise Line

Last reported at 2016-May-27 05:27 UTC. Time now 2016-May-27 06:31 UTC.
Position N 59°27' E 024°46'.

Type: Passenger vessel. MMSI: 311082000.

Date/timePositionNaut miles runAvg speedWind from/ knotsBaromVisibWave heightAir tempDewpointWater temp
2016-May-27 05:27N 59°27' E 024°46'6 7.1
2016-May-27 04:33N 59°30' E 024°34'3615.9
2016-May-27 02:17N 59°24' E 023°24'33316.8
2016-May-26 06:27N 55°41' E 015°44'1617.2
2016-May-26 05:33N 55°35' E 015°19'1717.3
2016-May-26 04:33N 55°27' E 014°51'916.5
2016-May-26 04:00N 55°24' E 014°36'920.9 050 / 171015.0 1.011.0 5.0 9.0
2016-May-26 03:33N 55°16' E 014°30'1717.2
2016-May-26 02:33N 55°03' E 014°10'1717.2
2016-May-26 01:33N 54°56' E 013°42'1716.9
2016-May-26 00:32N 54°51' E 013°14'1616.0
2016-May-25 23:33N 54°46' E 012°48'1615.7
2016-May-25 22:33N 54°39' E 012°24'1515.4
2016-May-25 21:34N 54°26' E 012°10'1312.8
2016-May-25 20:33N 54°13' E 012°04'3 2.5
2016-May-25 19:29N 54°11' E 012°06'0 0.0
2016-May-25 18:32N 54°11' E 012°06'0 0.0
2016-May-25 17:32N 54°11' E 012°06'0 0.0
2016-May-25 16:29N 54°11' E 012°06'0 0.0
2016-May-25 15:32N 54°11' E 012°06'0 0.0
2016-May-25 14:32N 54°11' E 012°06'0 0.0
2016-May-25 13:29N 54°11' E 012°06'0 0.0
2016-May-25 12:29N 54°11' E 012°06'0 0.0
2016-May-25 11:29N 54°11' E 012°06'0 0.0
2016-May-25 10:32N 54°11' E 012°06'0 0.0
2016-May-25 09:32N 54°11' E 012°06'0 0.0
2016-May-25 08:32N 54°11' E 012°06'0 0.0
2016-May-25 07:17N 54°11' E 012°06'0 0.0
2016-May-25 06:29N 54°11' E 012°06'0 0.1
2016-May-25 05:33N 54°11' E 012°06'3 2.9
2016-May-25 04:33N 54°13' E 012°04'7 7.1
2016-May-25 03:33N 54°18' E 011°56'1514.7
2016-May-25 02:33N 54°26' E 011°35'1616.2
2016-May-25 01:33N 54°35' E 011°11'1515.3
2016-May-25 00:34N 54°45' E 010°51'1615.5
2016-May-24 23:34N 54°60' E 011°01'1616.2
2016-May-24 22:33N 55°16' E 011°04'4117.4
2016-May-24 20:11N 55°57' E 010°59'1318.2
2016-May-24 19:28N 56°07' E 011°13'2319.0
2016-May-24 18:17N 56°08' E 011°54'1419.3
2016-May-24 17:33N 56°12' E 012°18'1717.5
2016-May-24 16:33N 56°01' E 012°41'1515.0
2016-May-24 15:33N 55°46' E 012°42'4 3.6
2016-May-24 14:33N 55°43' E 012°37'0 0.0
2016-May-24 13:33N 55°43' E 012°37'0 0.0
2016-May-24 12:33N 55°43' E 012°37'0 0.0
2016-May-24 11:33N 55°43' E 012°37'0 0.0
2016-May-24 10:33N 55°43' E 012°37'0 0.0
2016-May-24 09:33N 55°43' E 012°37'0 0.0
2016-May-24 08:33N 55°43' E 012°37'0 0.0
2016-May-24 07:33N 55°43' E 012°37'0 0.0
2016-May-24 06:33N 55°43' E 012°37'0 0.0
2016-May-24 05:33N 55°43' E 012°37'0 0.0
2016-May-24 04:33N 55°43' E 012°37'5 4.7
2016-May-24 03:33N 55°47' E 012°42'1312.6
2016-May-24 02:33N 55°59' E 012°40'1312.7
2016-May-24 01:33N 56°09' E 012°26'1313.3
2016-May-24 00:34N 56°17' E 012°06'1412.8
2016-May-23 23:29N 56°30' E 011°58'1213.4
2016-May-23 22:33N 56°42' E 011°54'1313.5
2016-May-23 21:34N 56°54' E 011°45'1514.6
2016-May-23 20:33N 57°08' E 011°36'1414.3
2016-May-23 19:33N 57°22' E 011°27'1616.0
2016-May-23 18:33N 57°34' E 011°09'1515.4
2016-May-23 17:33N 57°45' E 010°49'1615.9
2016-May-23 16:33N 57°49' E 010°20'813.6
2016-May-23 16:00N 57°48' E 010°06'716.4 190 / 91010.0 0.511.511.312.0
2016-May-23 15:32N 57°49' E 009°52'1614.4
2016-May-23 14:27N 57°47' E 009°23'2914.6
2016-May-23 12:30N 57°44' E 008°30'2914.8
2016-May-23 10:31N 57°41' E 007°35'1616.2
2016-May-23 09:31N 57°41' E 007°05'1715.3
2016-May-23 08:26N 57°43' E 006°34'1313.8
2016-May-23 07:31N 57°51' E 006°16'1414.9
2016-May-23 06:33N 58°01' E 005°56'3214.6
2016-May-23 04:20N 58°22' E 005°10'1215.0
2016-May-23 03:31N 58°31' E 004°54'1414.7
2016-May-23 02:34N 58°41' E 004°35'  
2016-May-20 21:12N 62°09' E 004°46'1117.2
2016-May-20 20:33N 62°19' E 004°58'1714.8
2016-May-20 19:23N 62°27' E 005°31'38 1.8
2016-May-19 22:31N 62°26' E 006°53'6 5.8
2016-May-19 21:33N 62°27' E 006°41'6 5.9
2016-May-19 20:33N 62°25' E 006°29'6 6.4
2016-May-19 19:33N 62°23' E 006°16'6 6.0
2016-May-19 18:33N 62°24' E 006°03'5 4.6
2016-May-19 17:34N 62°27' E 006°10'1 0.9
2016-May-19 16:32N 62°28' E 006°09'0 0.0
2016-May-19 15:32N 62°28' E 006°09'216 8.3
2016-May-18 13:28N 58°59' E 004°15'1415.9
2016-May-18 12:33N 58°49' E 004°34'1616.0
2016-May-18 11:33N 58°37' E 004°55'1615.9
2016-May-18 10:33N 58°25' E 005°15'1616.1
2016-May-18 09:33N 58°14' E 005°39'1616.6
2016-May-18 08:34N 58°04' E 006°02'1616.3
2016-May-18 07:33N 57°53' E 006°25'1616.1
2016-May-18 06:33N 57°46' E 006°53'9719.3
2016-May-18 01:31N 57°51' E 009°55'1819.0
2016-May-18 00:33N 57°52' E 010°29'1818.5
2016-May-17 23:33N 57°43' E 011°00'2020.1
2016-May-17 22:33N 57°29' E 011°27'2020.1
2016-May-17 21:33N 57°10' E 011°38'2019.7
2016-May-17 20:33N 56°52' E 011°51'1919.3
2016-May-17 19:33N 56°33' E 011°59'1918.6
2016-May-17 18:32N 56°15' E 012°12'1717.6
2016-May-17 17:33N 56°05' E 012°37'1515.5
2016-May-17 16:33N 55°50' E 012°45'8 8.1
2016-May-17 15:32N 55°43' E 012°37'0 0.0
2016-May-17 14:32N 55°43' E 012°37'0 0.0
2016-May-17 13:32N 55°43' E 012°37'0 0.0
2016-May-17 12:32N 55°43' E 012°37'0 0.0
2016-May-17 11:32N 55°43' E 012°37'0 0.0
2016-May-17 10:32N 55°43' E 012°37'0 0.0
2016-May-17 09:32N 55°43' E 012°37'0 0.0
2016-May-17 08:32N 55°43' E 012°37'0 0.0
2016-May-17 07:32N 55°43' E 012°37'0 0.0
2016-May-17 06:32N 55°43' E 012°37'0 0.0
2016-May-17 05:32N 55°43' E 012°37'  

Dump ship's entire track history